sensor_id;sensor_type;location;lat;lon;timestamp;P1;durP1;ratioP1;P2;durP2;ratioP2
5054;SDS011;13829;48.990;8.346;2023-10-19T00:00:47;20.03;;;16.43;;
5054;SDS011;13829;48.990;8.346;2023-10-19T00:03:16;18.00;;;14.93;;
5054;SDS011;13829;48.990;8.346;2023-10-19T00:05:43;20.17;;;17.37;;
5054;SDS011;13829;48.990;8.346;2023-10-19T00:08:13;20.80;;;17.30;;
5054;SDS011;13829;48.990;8.346;2023-10-19T00:10:40;17.50;;;15.60;;
5054;SDS011;13829;48.990;8.346;2023-10-19T00:13:10;16.47;;;14.77;;
5054;SDS011;13829;48.990;8.346;2023-10-19T00:15:37;18.33;;;15.67;;
5054;SDS011;13829;48.990;8.346;2023-10-19T00:18:06;17.77;;;15.20;;
5054;SDS011;13829;48.990;8.346;2023-10-19T00:20:46;17.97;;;16.17;;
5054;SDS011;13829;48.990;8.346;2023-10-19T00:23:19;17.93;;;16.03;;
5054;SDS011;13829;48.990;8.346;2023-10-19T00:25:54;20.13;;;16.53;;
5054;SDS011;13829;48.990;8.346;2023-10-19T00:28:22;17.20;;;14.93;;
5054;SDS011;13829;48.990;8.346;2023-10-19T00:30:51;18.73;;;15.27;;
5054;SDS011;13829;48.990;8.346;2023-10-19T00:33:18;18.03;;;15.47;;
5054;SDS011;13829;48.990;8.346;2023-10-19T00:35:47;17.53;;;14.87;;
5054;SDS011;13829;48.990;8.346;2023-10-19T00:38:24;16.27;;;14.50;;
5054;SDS011;13829;48.990;8.346;2023-10-19T00:41:04;16.43;;;13.93;;
5054;SDS011;13829;48.990;8.346;2023-10-19T00:43:37;17.43;;;13.90;;
5054;SDS011;13829;48.990;8.346;2023-10-19T00:46:09;17.13;;;15.30;;
5054;SDS011;13829;48.990;8.346;2023-10-19T00:48:40;20.70;;;16.17;;
5054;SDS011;13829;48.990;8.346;2023-10-19T00:51:14;16.50;;;14.60;;
5054;SDS011;13829;48.990;8.346;2023-10-19T00:53:57;18.10;;;14.47;;
5054;SDS011;13829;48.990;8.346;2023-10-19T00:56:32;16.83;;;14.50;;
5054;SDS011;13829;48.990;8.346;2023-10-19T00:59:00;18.67;;;15.50;;
5054;SDS011;13829;48.990;8.346;2023-10-19T01:01:37;17.80;;;14.97;;
5054;SDS011;13829;48.990;8.346;2023-10-19T01:04:09;17.13;;;14.27;;
5054;SDS011;13829;48.990;8.346;2023-10-19T01:06:40;17.20;;;15.23;;
5054;SDS011;13829;48.990;8.346;2023-10-19T01:09:12;16.50;;;14.73;;
5054;SDS011;13829;48.990;8.346;2023-10-19T01:11:40;17.07;;;14.40;;
5054;SDS011;13829;48.990;8.346;2023-10-19T01:14:18;17.20;;;15.00;;
5054;SDS011;13829;48.990;8.346;2023-10-19T01:16:46;17.23;;;15.33;;
5054;SDS011;13829;48.990;8.346;2023-10-19T01:19:14;18.53;;;14.83;;
5054;SDS011;13829;48.990;8.346;2023-10-19T01:21:43;17.17;;;15.13;;
5054;SDS011;13829;48.990;8.346;2023-10-19T01:24:18;17.67;;;15.23;;
5054;SDS011;13829;48.990;8.346;2023-10-19T01:26:52;16.40;;;14.27;;
5054;SDS011;13829;48.990;8.346;2023-10-19T01:29:22;19.67;;;15.77;;
5054;SDS011;13829;48.990;8.346;2023-10-19T01:31:52;17.10;;;14.53;;
5054;SDS011;13829;48.990;8.346;2023-10-19T01:34:29;15.17;;;13.40;;
5054;SDS011;13829;48.990;8.346;2023-10-19T01:36:58;19.03;;;14.17;;
5054;SDS011;13829;48.990;8.346;2023-10-19T01:39:29;16.00;;;14.30;;
5054;SDS011;13829;48.990;8.346;2023-10-19T01:41:57;15.77;;;14.03;;
5054;SDS011;13829;48.990;8.346;2023-10-19T01:44:23;16.40;;;14.13;;
5054;SDS011;13829;48.990;8.346;2023-10-19T01:46:51;16.83;;;13.87;;
5054;SDS011;13829;48.990;8.346;2023-10-19T01:49:17;14.73;;;13.07;;
5054;SDS011;13829;48.990;8.346;2023-10-19T01:51:51;13.70;;;12.30;;
5054;SDS011;13829;48.990;8.346;2023-10-19T01:54:19;16.47;;;13.00;;
5054;SDS011;13829;48.990;8.346;2023-10-19T01:56:51;14.97;;;12.20;;
5054;SDS011;13829;48.990;8.346;2023-10-19T01:59:20;13.43;;;11.97;;
5054;SDS011;13829;48.990;8.346;2023-10-19T02:01:52;15.10;;;13.57;;
5054;SDS011;13829;48.990;8.346;2023-10-19T02:04:19;15.87;;;13.87;;
5054;SDS011;13829;48.990;8.346;2023-10-19T02:06:47;15.43;;;12.90;;
5054;SDS011;13829;48.990;8.346;2023-10-19T02:09:15;14.83;;;12.37;;
5054;SDS011;13829;48.990;8.346;2023-10-19T02:11:49;14.17;;;12.67;;
5054;SDS011;13829;48.990;8.346;2023-10-19T02:14:18;15.83;;;12.27;;
5054;SDS011;13829;48.990;8.346;2023-10-19T02:16:46;13.77;;;12.33;;
5054;SDS011;13829;48.990;8.346;2023-10-19T02:19:16;14.67;;;12.33;;
5054;SDS011;13829;48.990;8.346;2023-10-19T02:21:44;15.97;;;13.30;;
5054;SDS011;13829;48.990;8.346;2023-10-19T02:24:13;14.50;;;12.97;;
5054;SDS011;13829;48.990;8.346;2023-10-19T02:26:41;15.20;;;13.07;;
5054;SDS011;13829;48.990;8.346;2023-10-19T02:29:10;13.37;;;11.97;;
5054;SDS011;13829;48.990;8.346;2023-10-19T02:31:37;15.40;;;13.47;;
5054;SDS011;13829;48.990;8.346;2023-10-19T02:34:05;16.20;;;13.37;;
5054;SDS011;13829;48.990;8.346;2023-10-19T02:36:34;14.60;;;13.10;;
5054;SDS011;13829;48.990;8.346;2023-10-19T02:39:03;13.70;;;12.10;;
5054;SDS011;13829;48.990;8.346;2023-10-19T02:41:33;16.00;;;13.27;;
5054;SDS011;13829;48.990;8.346;2023-10-19T02:44:00;15.47;;;13.57;;
5054;SDS011;13829;48.990;8.346;2023-10-19T02:46:31;13.67;;;12.23;;
5054;SDS011;13829;48.990;8.346;2023-10-19T02:48:59;15.83;;;12.87;;
5054;SDS011;13829;48.990;8.346;2023-10-19T02:51:28;14.53;;;12.63;;
5054;SDS011;13829;48.990;8.346;2023-10-19T02:53:54;15.20;;;13.00;;
5054;SDS011;13829;48.990;8.346;2023-10-19T02:56:24;17.93;;;15.27;;
5054;SDS011;13829;48.990;8.346;2023-10-19T02:58:52;17.80;;;14.90;;
5054;SDS011;13829;48.990;8.346;2023-10-19T03:01:19;15.80;;;14.10;;
5054;SDS011;13829;48.990;8.346;2023-10-19T03:03:51;14.87;;;13.30;;
5054;SDS011;13829;48.990;8.346;2023-10-19T03:06:20;14.90;;;13.33;;
5054;SDS011;13829;48.990;8.346;2023-10-19T03:08:47;16.97;;;14.03;;
5054;SDS011;13829;48.990;8.346;2023-10-19T03:11:20;15.47;;;13.33;;
5054;SDS011;13829;48.990;8.346;2023-10-19T03:13:46;15.33;;;12.53;;
5054;SDS011;13829;48.990;8.346;2023-10-19T03:16:15;13.83;;;11.87;;
5054;SDS011;13829;48.990;8.346;2023-10-19T03:18:42;15.17;;;13.57;;
5054;SDS011;13829;48.990;8.346;2023-10-19T03:21:11;14.10;;;12.60;;
5054;SDS011;13829;48.990;8.346;2023-10-19T03:23:37;18.27;;;12.80;;
5054;SDS011;13829;48.990;8.346;2023-10-19T03:26:05;14.10;;;12.03;;
5054;SDS011;13829;48.990;8.346;2023-10-19T03:28:43;13.00;;;11.70;;
5054;SDS011;13829;48.990;8.346;2023-10-19T03:31:11;14.80;;;12.53;;
5054;SDS011;13829;48.990;8.346;2023-10-19T03:33:43;12.90;;;11.20;;
5054;SDS011;13829;48.990;8.346;2023-10-19T03:36:14;14.47;;;11.90;;
5054;SDS011;13829;48.990;8.346;2023-10-19T03:38:41;15.10;;;12.57;;
5054;SDS011;13829;48.990;8.346;2023-10-19T03:41:11;15.07;;;12.37;;
5054;SDS011;13829;48.990;8.346;2023-10-19T03:43:38;17.90;;;12.60;;
5054;SDS011;13829;48.990;8.346;2023-10-19T03:46:06;13.40;;;11.57;;
5054;SDS011;13829;48.990;8.346;2023-10-19T03:48:47;13.73;;;11.07;;
5054;SDS011;13829;48.990;8.346;2023-10-19T03:51:15;13.10;;;11.70;;
5054;SDS011;13829;48.990;8.346;2023-10-19T03:53:43;12.07;;;10.80;;
5054;SDS011;13829;48.990;8.346;2023-10-19T03:56:13;13.43;;;10.83;;
5054;SDS011;13829;48.990;8.346;2023-10-19T03:58:42;12.90;;;11.27;;
5054;SDS011;13829;48.990;8.346;2023-10-19T04:01:13;15.53;;;12.53;;
5054;SDS011;13829;48.990;8.346;2023-10-19T04:03:41;13.80;;;12.43;;
5054;SDS011;13829;48.990;8.346;2023-10-19T04:06:09;13.40;;;10.90;;
5054;SDS011;13829;48.990;8.346;2023-10-19T04:08:41;12.73;;;11.30;;
5054;SDS011;13829;48.990;8.346;2023-10-19T04:11:12;13.00;;;11.60;;
5054;SDS011;13829;48.990;8.346;2023-10-19T04:13:47;14.27;;;11.90;;
5054;SDS011;13829;48.990;8.346;2023-10-19T04:16:19;14.17;;;11.07;;
5054;SDS011;13829;48.990;8.346;2023-10-19T04:18:46;13.17;;;11.30;;
5054;SDS011;13829;48.990;8.346;2023-10-19T04:21:14;13.47;;;11.87;;
5054;SDS011;13829;48.990;8.346;2023-10-19T04:23:43;12.27;;;10.87;;
5054;SDS011;13829;48.990;8.346;2023-10-19T04:26:11;12.43;;;11.10;;
5054;SDS011;13829;48.990;8.346;2023-10-19T04:28:43;12.00;;;10.70;;
5054;SDS011;13829;48.990;8.346;2023-10-19T04:31:14;11.47;;;10.27;;
5054;SDS011;13829;48.990;8.346;2023-10-19T04:33:42;11.73;;;10.50;;
5054;SDS011;13829;48.990;8.346;2023-10-19T04:36:12;12.63;;;10.77;;
5054;SDS011;13829;48.990;8.346;2023-10-19T04:38:40;12.73;;;10.30;;
5054;SDS011;13829;48.990;8.346;2023-10-19T04:41:10;11.20;;;10.00;;
5054;SDS011;13829;48.990;8.346;2023-10-19T04:43:38;12.70;;;10.63;;
5054;SDS011;13829;48.990;8.346;2023-10-19T04:46:08;11.73;;;10.17;;
5054;SDS011;13829;48.990;8.346;2023-10-19T04:48:37;13.80;;;11.23;;
5054;SDS011;13829;48.990;8.346;2023-10-19T04:51:07;14.70;;;11.07;;
5054;SDS011;13829;48.990;8.346;2023-10-19T04:53:35;13.47;;;11.40;;
5054;SDS011;13829;48.990;8.346;2023-10-19T04:56:03;13.77;;;11.40;;
5054;SDS011;13829;48.990;8.346;2023-10-19T04:58:33;12.93;;;10.33;;
5054;SDS011;13829;48.990;8.346;2023-10-19T05:01:00;14.77;;;11.73;;
5054;SDS011;13829;48.990;8.346;2023-10-19T05:03:28;16.73;;;13.90;;
5054;SDS011;13829;48.990;8.346;2023-10-19T05:05:56;14.50;;;12.83;;
5054;SDS011;13829;48.990;8.346;2023-10-19T05:08:23;13.23;;;11.90;;
5054;SDS011;13829;48.990;8.346;2023-10-19T05:10:52;13.07;;;11.33;;
5054;SDS011;13829;48.990;8.346;2023-10-19T05:13:20;12.37;;;10.93;;
5054;SDS011;13829;48.990;8.346;2023-10-19T05:15:49;17.00;;;12.87;;
5054;SDS011;13829;48.990;8.346;2023-10-19T05:18:18;14.23;;;11.67;;
5054;SDS011;13829;48.990;8.346;2023-10-19T05:20:45;18.20;;;13.17;;
5054;SDS011;13829;48.990;8.346;2023-10-19T05:23:12;15.97;;;13.13;;
5054;SDS011;13829;48.990;8.346;2023-10-19T05:25:39;13.87;;;11.87;;
5054;SDS011;13829;48.990;8.346;2023-10-19T05:28:06;15.43;;;11.77;;
5054;SDS011;13829;48.990;8.346;2023-10-19T05:30:34;14.53;;;11.70;;
5054;SDS011;13829;48.990;8.346;2023-10-19T05:33:04;12.67;;;11.10;;
5054;SDS011;13829;48.990;8.346;2023-10-19T05:35:31;15.37;;;12.60;;
5054;SDS011;13829;48.990;8.346;2023-10-19T05:38:02;15.93;;;13.47;;
5054;SDS011;13829;48.990;8.346;2023-10-19T05:40:29;14.97;;;12.53;;
5054;SDS011;13829;48.990;8.346;2023-10-19T05:42:56;14.37;;;12.07;;
5054;SDS011;13829;48.990;8.346;2023-10-19T05:45:25;15.13;;;12.20;;
5054;SDS011;13829;48.990;8.346;2023-10-19T05:47:53;13.10;;;10.77;;
5054;SDS011;13829;48.990;8.346;2023-10-19T05:50:23;12.87;;;11.50;;
5054;SDS011;13829;48.990;8.346;2023-10-19T05:52:50;12.03;;;10.30;;
5054;SDS011;13829;48.990;8.346;2023-10-19T05:55:18;11.67;;;10.47;;
5054;SDS011;13829;48.990;8.346;2023-10-19T05:57:46;13.73;;;11.37;;
5054;SDS011;13829;48.990;8.346;2023-10-19T06:00:14;12.47;;;11.17;;
5054;SDS011;13829;48.990;8.346;2023-10-19T06:02:43;13.20;;;11.83;;
5054;SDS011;13829;48.990;8.346;2023-10-19T06:05:12;13.77;;;12.07;;
5054;SDS011;13829;48.990;8.346;2023-10-19T06:07:42;14.90;;;13.20;;
5054;SDS011;13829;48.990;8.346;2023-10-19T06:10:10;14.33;;;12.83;;
5054;SDS011;13829;48.990;8.346;2023-10-19T06:12:42;13.97;;;12.43;;
5054;SDS011;13829;48.990;8.346;2023-10-19T06:15:09;12.60;;;11.30;;
5054;SDS011;13829;48.990;8.346;2023-10-19T06:17:38;15.43;;;12.57;;
5054;SDS011;13829;48.990;8.346;2023-10-19T06:20:06;15.73;;;12.17;;
5054;SDS011;13829;48.990;8.346;2023-10-19T06:22:46;15.17;;;12.50;;
5054;SDS011;13829;48.990;8.346;2023-10-19T06:25:15;14.57;;;11.70;;
5054;SDS011;13829;48.990;8.346;2023-10-19T06:27:44;15.30;;;12.70;;
5054;SDS011;13829;48.990;8.346;2023-10-19T06:30:12;17.70;;;14.47;;
5054;SDS011;13829;48.990;8.346;2023-10-19T06:32:43;14.90;;;13.00;;
5054;SDS011;13829;48.990;8.346;2023-10-19T06:35:15;13.33;;;12.03;;
5054;SDS011;13829;48.990;8.346;2023-10-19T06:37:43;13.80;;;12.07;;
5054;SDS011;13829;48.990;8.346;2023-10-19T06:40:12;14.90;;;12.80;;
5054;SDS011;13829;48.990;8.346;2023-10-19T06:42:42;13.97;;;12.47;;
5054;SDS011;13829;48.990;8.346;2023-10-19T06:45:10;13.67;;;11.30;;
5054;SDS011;13829;48.990;8.346;2023-10-19T06:47:39;13.93;;;11.57;;
5054;SDS011;13829;48.990;8.346;2023-10-19T06:50:08;18.57;;;12.93;;
5054;SDS011;13829;48.990;8.346;2023-10-19T06:52:36;14.13;;;12.70;;
5054;SDS011;13829;48.990;8.346;2023-10-19T06:55:05;17.63;;;14.33;;
5054;SDS011;13829;48.990;8.346;2023-10-19T06:57:38;14.53;;;12.33;;
5054;SDS011;13829;48.990;8.346;2023-10-19T07:00:08;19.80;;;17.23;;
5054;SDS011;13829;48.990;8.346;2023-10-19T07:02:39;58.70;;;42.03;;
5054;SDS011;13829;48.990;8.346;2023-10-19T07:05:08;90.23;;;59.57;;
5054;SDS011;13829;48.990;8.346;2023-10-19T07:07:36;85.97;;;55.20;;
5054;SDS011;13829;48.990;8.346;2023-10-19T07:10:08;52.43;;;36.40;;
5054;SDS011;13829;48.990;8.346;2023-10-19T07:12:37;41.90;;;30.07;;
5054;SDS011;13829;48.990;8.346;2023-10-19T07:15:07;30.07;;;23.60;;
5054;SDS011;13829;48.990;8.346;2023-10-19T07:17:39;23.07;;;17.97;;
5054;SDS011;13829;48.990;8.346;2023-10-19T07:20:06;21.77;;;17.20;;
5054;SDS011;13829;48.990;8.346;2023-10-19T07:22:47;16.13;;;12.30;;
5054;SDS011;13829;48.990;8.346;2023-10-19T07:25:15;13.30;;;11.90;;
5054;SDS011;13829;48.990;8.346;2023-10-19T07:27:47;11.90;;;10.63;;
5054;SDS011;13829;48.990;8.346;2023-10-19T07:30:15;12.27;;;10.97;;
5054;SDS011;13829;48.990;8.346;2023-10-19T07:32:47;12.23;;;10.83;;
5054;SDS011;13829;48.990;8.346;2023-10-19T07:35:19;11.40;;;9.97;;
5054;SDS011;13829;48.990;8.346;2023-10-19T07:37:46;11.50;;;10.30;;
5054;SDS011;13829;48.990;8.346;2023-10-19T07:40:16;14.90;;;11.17;;
5054;SDS011;13829;48.990;8.346;2023-10-19T07:42:44;11.50;;;10.30;;
5054;SDS011;13829;48.990;8.346;2023-10-19T07:45:11;14.97;;;11.30;;
5054;SDS011;13829;48.990;8.346;2023-10-19T07:47:39;13.33;;;10.77;;
5054;SDS011;13829;48.990;8.346;2023-10-19T07:50:07;12.03;;;9.97;;
5054;SDS011;13829;48.990;8.346;2023-10-19T07:52:37;14.13;;;11.33;;
5054;SDS011;13829;48.990;8.346;2023-10-19T07:55:05;12.83;;;11.43;;
5054;SDS011;13829;48.990;8.346;2023-10-19T07:57:34;12.10;;;10.67;;
5054;SDS011;13829;48.990;8.346;2023-10-19T08:00:02;12.23;;;10.87;;
5054;SDS011;13829;48.990;8.346;2023-10-19T08:02:30;10.87;;;9.77;;
5054;SDS011;13829;48.990;8.346;2023-10-19T08:04:59;13.27;;;10.60;;
5054;SDS011;13829;48.990;8.346;2023-10-19T08:07:27;13.50;;;10.67;;
5054;SDS011;13829;48.990;8.346;2023-10-19T08:09:54;11.63;;;10.23;;
5054;SDS011;13829;48.990;8.346;2023-10-19T08:12:23;11.20;;;9.70;;
5054;SDS011;13829;48.990;8.346;2023-10-19T08:14:52;10.37;;;9.30;;
5054;SDS011;13829;48.990;8.346;2023-10-19T08:17:20;10.93;;;9.50;;
5054;SDS011;13829;48.990;8.346;2023-10-19T08:19:48;9.83;;;8.83;;
5054;SDS011;13829;48.990;8.346;2023-10-19T08:22:15;9.60;;;8.67;;
5054;SDS011;13829;48.990;8.346;2023-10-19T08:24:42;10.90;;;9.00;;
5054;SDS011;13829;48.990;8.346;2023-10-19T08:27:11;10.10;;;9.10;;
5054;SDS011;13829;48.990;8.346;2023-10-19T08:29:38;10.73;;;9.40;;
5054;SDS011;13829;48.990;8.346;2023-10-19T08:32:07;12.20;;;9.13;;
5054;SDS011;13829;48.990;8.346;2023-10-19T08:34:34;13.10;;;9.47;;
5054;SDS011;13829;48.990;8.346;2023-10-19T08:37:02;10.13;;;8.60;;
5054;SDS011;13829;48.990;8.346;2023-10-19T08:39:30;10.27;;;8.17;;
5054;SDS011;13829;48.990;8.346;2023-10-19T08:42:01;10.47;;;8.83;;
5054;SDS011;13829;48.990;8.346;2023-10-19T08:44:29;11.07;;;8.33;;
5054;SDS011;13829;48.990;8.346;2023-10-19T08:46:57;10.43;;;7.90;;
5054;SDS011;13829;48.990;8.346;2023-10-19T08:49:26;8.63;;;7.73;;
5054;SDS011;13829;48.990;8.346;2023-10-19T08:51:56;8.63;;;7.33;;
5054;SDS011;13829;48.990;8.346;2023-10-19T08:54:29;9.63;;;8.13;;
5054;SDS011;13829;48.990;8.346;2023-10-19T08:56:58;9.63;;;8.40;;
5054;SDS011;13829;48.990;8.346;2023-10-19T08:59:26;11.00;;;7.70;;
5054;SDS011;13829;48.990;8.346;2023-10-19T09:01:59;9.40;;;6.90;;
5054;SDS011;13829;48.990;8.346;2023-10-19T09:04:29;8.70;;;7.87;;
5054;SDS011;13829;48.990;8.346;2023-10-19T09:06:56;8.37;;;7.60;;
5054;SDS011;13829;48.990;8.346;2023-10-19T09:09:23;10.17;;;7.83;;
5054;SDS011;13829;48.990;8.346;2023-10-19T09:11:51;12.00;;;8.80;;
5054;SDS011;13829;48.990;8.346;2023-10-19T09:14:30;8.87;;;7.77;;
5054;SDS011;13829;48.990;8.346;2023-10-19T09:17:00;8.60;;;7.37;;
5054;SDS011;13829;48.990;8.346;2023-10-19T09:19:37;8.10;;;6.90;;
5054;SDS011;13829;48.990;8.346;2023-10-19T09:22:07;10.90;;;8.20;;
5054;SDS011;13829;48.990;8.346;2023-10-19T09:24:42;9.80;;;8.27;;
5054;SDS011;13829;48.990;8.346;2023-10-19T09:27:11;10.07;;;7.73;;
5054;SDS011;13829;48.990;8.346;2023-10-19T09:29:39;9.73;;;7.83;;
5054;SDS011;13829;48.990;8.346;2023-10-19T09:32:07;8.87;;;7.33;;
5054;SDS011;13829;48.990;8.346;2023-10-19T09:34:34;12.57;;;8.70;;
5054;SDS011;13829;48.990;8.346;2023-10-19T09:37:03;10.87;;;7.53;;
5054;SDS011;13829;48.990;8.346;2023-10-19T09:39:31;9.43;;;7.57;;
5054;SDS011;13829;48.990;8.346;2023-10-19T09:42:00;8.80;;;7.90;;
5054;SDS011;13829;48.990;8.346;2023-10-19T09:44:32;8.57;;;7.17;;
5054;SDS011;13829;48.990;8.346;2023-10-19T09:47:09;8.97;;;7.60;;
5054;SDS011;13829;48.990;8.346;2023-10-19T09:49:39;10.80;;;7.57;;
5054;SDS011;13829;48.990;8.346;2023-10-19T09:52:10;8.63;;;7.60;;
5054;SDS011;13829;48.990;8.346;2023-10-19T09:54:42;10.87;;;7.03;;
5054;SDS011;13829;48.990;8.346;2023-10-19T09:57:22;9.23;;;6.47;;
5054;SDS011;13829;48.990;8.346;2023-10-19T09:59:59;8.40;;;7.53;;
5054;SDS011;13829;48.990;8.346;2023-10-19T10:02:37;8.25;;;6.90;;
5054;SDS011;13829;48.990;8.346;2023-10-19T10:08:32;7.80;;;6.55;;
5054;SDS011;13829;48.990;8.346;2023-10-19T10:11:12;9.30;;;8.23;;
5054;SDS011;13829;48.990;8.346;2023-10-19T10:13:46;10.10;;;7.63;;
5054;SDS011;13829;48.990;8.346;2023-10-19T10:16:18;7.97;;;6.90;;
5054;SDS011;13829;48.990;8.346;2023-10-19T10:18:50;10.15;;;6.95;;
5054;SDS011;13829;48.990;8.346;2023-10-19T10:21:24;6.93;;;6.27;;
5054;SDS011;13829;48.990;8.346;2023-10-19T10:23:54;8.43;;;6.97;;
5054;SDS011;13829;48.990;8.346;2023-10-19T10:26:23;9.70;;;7.63;;
5054;SDS011;13829;48.990;8.346;2023-10-19T10:29:07;10.48;;;7.80;;
5054;SDS011;13829;48.990;8.346;2023-10-19T10:31:45;10.67;;;7.93;;
5054;SDS011;13829;48.990;8.346;2023-10-19T10:37:09;9.50;;;7.90;;
5054;SDS011;13829;48.990;8.346;2023-10-19T10:39:40;7.33;;;6.53;;
5054;SDS011;13829;48.990;8.346;2023-10-19T10:42:09;8.80;;;7.00;;
5054;SDS011;13829;48.990;8.346;2023-10-19T10:44:40;8.20;;;7.33;;
5054;SDS011;13829;48.990;8.346;2023-10-19T10:47:10;8.27;;;7.47;;
5054;SDS011;13829;48.990;8.346;2023-10-19T10:49:49;9.83;;;7.70;;
5054;SDS011;13829;48.990;8.346;2023-10-19T10:52:26;9.23;;;6.87;;
5054;SDS011;13829;48.990;8.346;2023-10-19T10:54:56;11.07;;;7.37;;
5054;SDS011;13829;48.990;8.346;2023-10-19T10:57:23;7.77;;;5.80;;
5054;SDS011;13829;48.990;8.346;2023-10-19T11:00:02;10.10;;;7.90;;
5054;SDS011;13829;48.990;8.346;2023-10-19T11:02:32;9.57;;;8.13;;
5054;SDS011;13829;48.990;8.346;2023-10-19T11:05:00;9.60;;;8.27;;
5054;SDS011;13829;48.990;8.346;2023-10-19T11:07:28;10.40;;;8.33;;
5054;SDS011;13829;48.990;8.346;2023-10-19T11:09:58;11.37;;;9.13;;
5054;SDS011;13829;48.990;8.346;2023-10-19T11:12:26;13.70;;;9.93;;
5054;SDS011;13829;48.990;8.346;2023-10-19T11:14:54;11.93;;;9.47;;
5054;SDS011;13829;48.990;8.346;2023-10-19T11:17:24;9.50;;;8.47;;
5054;SDS011;13829;48.990;8.346;2023-10-19T11:19:55;10.43;;;9.03;;
5054;SDS011;13829;48.990;8.346;2023-10-19T11:22:23;15.57;;;10.97;;
5054;SDS011;13829;48.990;8.346;2023-10-19T11:24:51;15.07;;;10.50;;
5054;SDS011;13829;48.990;8.346;2023-10-19T11:27:24;13.47;;;11.93;;
5054;SDS011;13829;48.990;8.346;2023-10-19T11:29:55;11.53;;;9.47;;
5054;SDS011;13829;48.990;8.346;2023-10-19T11:32:24;11.63;;;9.90;;
5054;SDS011;13829;48.990;8.346;2023-10-19T11:34:52;15.33;;;10.33;;
5054;SDS011;13829;48.990;8.346;2023-10-19T11:37:20;13.80;;;11.70;;
5054;SDS011;13829;48.990;8.346;2023-10-19T11:39:47;13.30;;;11.70;;
5054;SDS011;13829;48.990;8.346;2023-10-19T11:42:17;14.67;;;11.63;;
5054;SDS011;13829;48.990;8.346;2023-10-19T11:44:46;14.27;;;11.43;;
5054;SDS011;13829;48.990;8.346;2023-10-19T11:47:13;12.67;;;10.30;;
5054;SDS011;13829;48.990;8.346;2023-10-19T11:49:40;13.17;;;10.83;;
5054;SDS011;13829;48.990;8.346;2023-10-19T11:52:07;11.17;;;9.13;;
5054;SDS011;13829;48.990;8.346;2023-10-19T11:54:34;12.37;;;10.17;;
5054;SDS011;13829;48.990;8.346;2023-10-19T11:57:01;13.87;;;11.83;;
5054;SDS011;13829;48.990;8.346;2023-10-19T11:59:28;15.93;;;10.57;;
5054;SDS011;13829;48.990;8.346;2023-10-19T12:01:57;16.60;;;12.30;;
5054;SDS011;13829;48.990;8.346;2023-10-19T12:04:25;15.27;;;11.77;;
5054;SDS011;13829;48.990;8.346;2023-10-19T12:06:52;15.33;;;10.43;;
5054;SDS011;13829;48.990;8.346;2023-10-19T12:09:20;14.70;;;11.70;;
5054;SDS011;13829;48.990;8.346;2023-10-19T12:11:49;17.43;;;12.90;;
5054;SDS011;13829;48.990;8.346;2023-10-19T12:14:19;15.53;;;12.33;;
5054;SDS011;13829;48.990;8.346;2023-10-19T12:16:46;15.33;;;12.87;;
5054;SDS011;13829;48.990;8.346;2023-10-19T12:19:14;13.77;;;11.23;;
5054;SDS011;13829;48.990;8.346;2023-10-19T12:21:44;15.10;;;11.60;;
5054;SDS011;13829;48.990;8.346;2023-10-19T12:24:11;16.57;;;13.00;;
5054;SDS011;13829;48.990;8.346;2023-10-19T12:26:40;17.40;;;12.03;;
5054;SDS011;13829;48.990;8.346;2023-10-19T12:29:07;16.23;;;13.37;;
5054;SDS011;13829;48.990;8.346;2023-10-19T12:31:36;14.60;;;12.77;;
5054;SDS011;13829;48.990;8.346;2023-10-19T12:34:05;14.67;;;12.17;;
5054;SDS011;13829;48.990;8.346;2023-10-19T12:36:34;13.53;;;10.83;;
5054;SDS011;13829;48.990;8.346;2023-10-19T12:39:01;13.43;;;11.20;;
5054;SDS011;13829;48.990;8.346;2023-10-19T12:41:31;15.00;;;11.57;;
5054;SDS011;13829;48.990;8.346;2023-10-19T12:43:59;14.80;;;12.30;;
5054;SDS011;13829;48.990;8.346;2023-10-19T12:46:27;15.47;;;12.13;;
5054;SDS011;13829;48.990;8.346;2023-10-19T12:48:55;14.60;;;11.63;;
5054;SDS011;13829;48.990;8.346;2023-10-19T12:51:23;18.47;;;12.27;;
5054;SDS011;13829;48.990;8.346;2023-10-19T12:53:52;14.77;;;11.73;;
5054;SDS011;13829;48.990;8.346;2023-10-19T12:56:21;16.03;;;11.40;;
5054;SDS011;13829;48.990;8.346;2023-10-19T12:58:50;14.40;;;10.53;;
5054;SDS011;13829;48.990;8.346;2023-10-19T13:01:17;17.80;;;13.20;;
5054;SDS011;13829;48.990;8.346;2023-10-19T13:03:45;15.00;;;12.00;;
5054;SDS011;13829;48.990;8.346;2023-10-19T13:06:14;14.30;;;11.50;;
5054;SDS011;13829;48.990;8.346;2023-10-19T13:08:42;13.03;;;10.23;;
5054;SDS011;13829;48.990;8.346;2023-10-19T13:11:10;15.07;;;11.10;;
5054;SDS011;13829;48.990;8.346;2023-10-19T13:13:39;14.40;;;11.20;;
5054;SDS011;13829;48.990;8.346;2023-10-19T13:16:06;10.00;;;9.00;;
5054;SDS011;13829;48.990;8.346;2023-10-19T13:18:34;12.53;;;10.87;;
5054;SDS011;13829;48.990;8.346;2023-10-19T13:21:01;11.57;;;10.37;;
5054;SDS011;13829;48.990;8.346;2023-10-19T13:23:30;15.53;;;10.27;;
5054;SDS011;13829;48.990;8.346;2023-10-19T13:25:59;13.83;;;10.63;;
5054;SDS011;13829;48.990;8.346;2023-10-19T13:28:43;12.27;;;10.00;;
5054;SDS011;13829;48.990;8.346;2023-10-19T13:31:11;13.50;;;10.80;;
5054;SDS011;13829;48.990;8.346;2023-10-19T13:33:40;10.50;;;8.63;;
5054;SDS011;13829;48.990;8.346;2023-10-19T13:36:09;11.57;;;9.13;;
5054;SDS011;13829;48.990;8.346;2023-10-19T13:38:36;11.20;;;9.75;;
5054;SDS011;13829;48.990;8.346;2023-10-19T13:41:03;10.57;;;9.47;;
5054;SDS011;13829;48.990;8.346;2023-10-19T13:43:32;13.37;;;10.40;;
5054;SDS011;13829;48.990;8.346;2023-10-19T13:46:01;12.80;;;10.13;;
5054;SDS011;13829;48.990;8.346;2023-10-19T13:48:29;11.90;;;9.87;;
5054;SDS011;13829;48.990;8.346;2023-10-19T13:50:57;14.23;;;11.20;;
5054;SDS011;13829;48.990;8.346;2023-10-19T13:53:30;15.77;;;12.57;;
5054;SDS011;13829;48.990;8.346;2023-10-19T13:55:57;14.80;;;11.20;;
5054;SDS011;13829;48.990;8.346;2023-10-19T13:58:24;17.10;;;12.93;;
5054;SDS011;13829;48.990;8.346;2023-10-19T14:00:52;13.77;;;12.23;;
5054;SDS011;13829;48.990;8.346;2023-10-19T14:03:20;18.13;;;13.63;;
5054;SDS011;13829;48.990;8.346;2023-10-19T14:05:47;12.87;;;10.83;;
5054;SDS011;13829;48.990;8.346;2023-10-19T14:08:16;14.03;;;12.63;;
5054;SDS011;13829;48.990;8.346;2023-10-19T14:10:45;17.83;;;14.70;;
5054;SDS011;13829;48.990;8.346;2023-10-19T14:13:13;18.83;;;14.97;;
5054;SDS011;13829;48.990;8.346;2023-10-19T14:15:40;17.97;;;15.47;;
5054;SDS011;13829;48.990;8.346;2023-10-19T14:18:08;20.27;;;18.07;;
5054;SDS011;13829;48.990;8.346;2023-10-19T14:20:37;18.27;;;16.40;;
5054;SDS011;13829;48.990;8.346;2023-10-19T14:23:05;21.23;;;16.40;;
5054;SDS011;13829;48.990;8.346;2023-10-19T14:25:38;24.73;;;15.83;;
5054;SDS011;13829;48.990;8.346;2023-10-19T14:28:07;19.00;;;14.73;;
5054;SDS011;13829;48.990;8.346;2023-10-19T14:30:35;16.60;;;13.57;;
5054;SDS011;13829;48.990;8.346;2023-10-19T14:33:02;19.30;;;17.27;;
5054;SDS011;13829;48.990;8.346;2023-10-19T14:35:34;20.30;;;15.37;;
5054;SDS011;13829;48.990;8.346;2023-10-19T14:38:05;25.73;;;16.90;;
5054;SDS011;13829;48.990;8.346;2023-10-19T14:40:34;27.03;;;17.70;;
5054;SDS011;13829;48.990;8.346;2023-10-19T14:43:01;24.27;;;17.53;;
5054;SDS011;13829;48.990;8.346;2023-10-19T14:45:28;21.90;;;17.40;;
5054;SDS011;13829;48.990;8.346;2023-10-19T14:47:56;23.07;;;19.93;;
5054;SDS011;13829;48.990;8.346;2023-10-19T14:50:25;33.53;;;30.13;;
5054;SDS011;13829;48.990;8.346;2023-10-19T14:52:53;27.17;;;24.27;;
5054;SDS011;13829;48.990;8.346;2023-10-19T14:55:22;24.93;;;21.87;;
5054;SDS011;13829;48.990;8.346;2023-10-19T14:57:51;20.47;;;14.90;;